sensor_id;sensor_type;location;lat;lon;timestamp;P1;durP1;ratioP1;P2;durP2;ratioP2
81508;SDS011;70930;52.412;13.554;2023-07-13T00:02:07;4.57;;;2.03;;
81508;SDS011;70930;52.412;13.554;2023-07-13T00:04:53;4.22;;;2.33;;
81508;SDS011;70930;52.412;13.554;2023-07-13T00:07:39;5.53;;;2.38;;
81508;SDS011;70930;52.412;13.554;2023-07-13T00:10:24;5.72;;;2.35;;
81508;SDS011;70930;52.412;13.554;2023-07-13T00:13:12;5.32;;;2.50;;
81508;SDS011;70930;52.412;13.554;2023-07-13T00:15:58;4.07;;;2.53;;
81508;SDS011;70930;52.412;13.554;2023-07-13T00:18:44;3.08;;;2.17;;
81508;SDS011;70930;52.412;13.554;2023-07-13T00:21:30;5.57;;;2.55;;
81508;SDS011;70930;52.412;13.554;2023-07-13T00:24:16;6.40;;;2.67;;
81508;SDS011;70930;52.412;13.554;2023-07-13T00:27:08;6.13;;;2.88;;
81508;SDS011;70930;52.412;13.554;2023-07-13T00:29:54;5.50;;;2.95;;
81508;SDS011;70930;52.412;13.554;2023-07-13T00:32:40;6.22;;;2.83;;
81508;SDS011;70930;52.412;13.554;2023-07-13T00:35:25;5.10;;;2.70;;
81508;SDS011;70930;52.412;13.554;2023-07-13T00:38:11;4.75;;;2.30;;
81508;SDS011;70930;52.412;13.554;2023-07-13T00:40:57;4.20;;;2.70;;
81508;SDS011;70930;52.412;13.554;2023-07-13T00:43:42;3.53;;;2.90;;
81508;SDS011;70930;52.412;13.554;2023-07-13T00:46:32;4.30;;;2.42;;
81508;SDS011;70930;52.412;13.554;2023-07-13T00:49:19;4.68;;;3.08;;
81508;SDS011;70930;52.412;13.554;2023-07-13T00:52:07;7.43;;;2.63;;
81508;SDS011;70930;52.412;13.554;2023-07-13T00:54:54;3.45;;;2.55;;
81508;SDS011;70930;52.412;13.554;2023-07-13T00:57:41;6.43;;;3.10;;
81508;SDS011;70930;52.412;13.554;2023-07-13T01:00:27;4.25;;;2.90;;
81508;SDS011;70930;52.412;13.554;2023-07-13T01:03:15;4.40;;;2.88;;
81508;SDS011;70930;52.412;13.554;2023-07-13T01:06:00;3.90;;;2.85;;
81508;SDS011;70930;52.412;13.554;2023-07-13T01:08:46;4.70;;;2.92;;
81508;SDS011;70930;52.412;13.554;2023-07-13T01:11:31;7.00;;;3.65;;
81508;SDS011;70930;52.412;13.554;2023-07-13T01:14:17;4.25;;;3.25;;
81508;SDS011;70930;52.412;13.554;2023-07-13T01:17:02;5.03;;;2.90;;
81508;SDS011;70930;52.412;13.554;2023-07-13T01:19:48;4.97;;;3.05;;
81508;SDS011;70930;52.412;13.554;2023-07-13T01:22:33;5.47;;;2.95;;
81508;SDS011;70930;52.412;13.554;2023-07-13T01:25:20;5.07;;;3.00;;
81508;SDS011;70930;52.412;13.554;2023-07-13T01:28:06;5.13;;;3.38;;
81508;SDS011;70930;52.412;13.554;2023-07-13T01:30:57;5.05;;;3.05;;
81508;SDS011;70930;52.412;13.554;2023-07-13T01:33:43;6.85;;;3.30;;
81508;SDS011;70930;52.412;13.554;2023-07-13T01:36:29;5.13;;;3.08;;
81508;SDS011;70930;52.412;13.554;2023-07-13T01:39:14;5.38;;;2.97;;
81508;SDS011;70930;52.412;13.554;2023-07-13T01:42:00;4.43;;;2.83;;
81508;SDS011;70930;52.412;13.554;2023-07-13T01:44:46;7.93;;;3.10;;
81508;SDS011;70930;52.412;13.554;2023-07-13T01:47:31;11.82;;;3.05;;
81508;SDS011;70930;52.412;13.554;2023-07-13T01:50:16;3.65;;;2.80;;
81508;SDS011;70930;52.412;13.554;2023-07-13T01:53:02;4.85;;;3.15;;
81508;SDS011;70930;52.412;13.554;2023-07-13T01:55:48;5.53;;;3.47;;
81508;SDS011;70930;52.412;13.554;2023-07-13T01:58:34;5.93;;;3.17;;
81508;SDS011;70930;52.412;13.554;2023-07-13T02:01:19;6.20;;;3.88;;
81508;SDS011;70930;52.412;13.554;2023-07-13T02:04:04;6.53;;;3.75;;
81508;SDS011;70930;52.412;13.554;2023-07-13T02:06:50;8.25;;;3.88;;
81508;SDS011;70930;52.412;13.554;2023-07-13T02:09:35;4.20;;;3.35;;
81508;SDS011;70930;52.412;13.554;2023-07-13T02:12:21;5.60;;;3.97;;
81508;SDS011;70930;52.412;13.554;2023-07-13T02:15:06;5.82;;;3.80;;
81508;SDS011;70930;52.412;13.554;2023-07-13T02:17:52;6.70;;;3.40;;
81508;SDS011;70930;52.412;13.554;2023-07-13T02:20:37;5.90;;;3.75;;
81508;SDS011;70930;52.412;13.554;2023-07-13T02:23:23;4.80;;;3.47;;
81508;SDS011;70930;52.412;13.554;2023-07-13T02:26:08;8.65;;;4.03;;
81508;SDS011;70930;52.412;13.554;2023-07-13T02:28:54;5.35;;;3.58;;
81508;SDS011;70930;52.412;13.554;2023-07-13T02:31:39;4.60;;;4.13;;
81508;SDS011;70930;52.412;13.554;2023-07-13T02:34:25;8.02;;;5.05;;
81508;SDS011;70930;52.412;13.554;2023-07-13T02:37:10;6.60;;;3.47;;
81508;SDS011;70930;52.412;13.554;2023-07-13T02:39:56;6.88;;;3.83;;
81508;SDS011;70930;52.412;13.554;2023-07-13T02:42:41;4.57;;;3.22;;
81508;SDS011;70930;52.412;13.554;2023-07-13T02:45:27;6.78;;;3.65;;
81508;SDS011;70930;52.412;13.554;2023-07-13T02:48:13;5.60;;;3.97;;
81508;SDS011;70930;52.412;13.554;2023-07-13T02:50:59;6.25;;;3.50;;
81508;SDS011;70930;52.412;13.554;2023-07-13T02:53:47;5.80;;;4.03;;
81508;SDS011;70930;52.412;13.554;2023-07-13T02:56:33;5.03;;;3.67;;
81508;SDS011;70930;52.412;13.554;2023-07-13T02:59:18;7.60;;;4.50;;
81508;SDS011;70930;52.412;13.554;2023-07-13T03:02:03;7.60;;;4.07;;
81508;SDS011;70930;52.412;13.554;2023-07-13T03:04:49;7.88;;;4.28;;
81508;SDS011;70930;52.412;13.554;2023-07-13T03:07:34;6.40;;;4.05;;
81508;SDS011;70930;52.412;13.554;2023-07-13T03:10:20;7.72;;;4.45;;
81508;SDS011;70930;52.412;13.554;2023-07-13T03:13:05;6.13;;;4.05;;
81508;SDS011;70930;52.412;13.554;2023-07-13T03:15:51;6.75;;;3.83;;
81508;SDS011;70930;52.412;13.554;2023-07-13T03:18:36;5.72;;;3.85;;
81508;SDS011;70930;52.412;13.554;2023-07-13T03:21:22;6.95;;;3.65;;
81508;SDS011;70930;52.412;13.554;2023-07-13T03:24:08;6.05;;;3.65;;
81508;SDS011;70930;52.412;13.554;2023-07-13T03:26:53;6.85;;;3.83;;
81508;SDS011;70930;52.412;13.554;2023-07-13T03:29:38;5.63;;;3.35;;
81508;SDS011;70930;52.412;13.554;2023-07-13T03:32:24;6.13;;;4.38;;
81508;SDS011;70930;52.412;13.554;2023-07-13T03:35:09;6.15;;;3.95;;
81508;SDS011;70930;52.412;13.554;2023-07-13T03:37:55;4.63;;;3.83;;
81508;SDS011;70930;52.412;13.554;2023-07-13T03:40:41;7.20;;;3.60;;
81508;SDS011;70930;52.412;13.554;2023-07-13T03:43:27;5.80;;;3.30;;
81508;SDS011;70930;52.412;13.554;2023-07-13T03:46:13;5.07;;;3.60;;
81508;SDS011;70930;52.412;13.554;2023-07-13T03:48:59;5.70;;;3.30;;
81508;SDS011;70930;52.412;13.554;2023-07-13T03:51:44;4.93;;;3.30;;
81508;SDS011;70930;52.412;13.554;2023-07-13T03:54:30;6.28;;;3.30;;
81508;SDS011;70930;52.412;13.554;2023-07-13T03:57:15;7.00;;;3.65;;
81508;SDS011;70930;52.412;13.554;2023-07-13T04:00:01;8.45;;;3.60;;
81508;SDS011;70930;52.412;13.554;2023-07-13T04:02:46;4.22;;;3.83;;
81508;SDS011;70930;52.412;13.554;2023-07-13T04:05:34;3.75;;;2.85;;
81508;SDS011;70930;52.412;13.554;2023-07-13T04:08:21;4.57;;;3.40;;
81508;SDS011;70930;52.412;13.554;2023-07-13T04:11:06;4.18;;;3.28;;
81508;SDS011;70930;52.412;13.554;2023-07-13T04:13:52;5.40;;;3.78;;
81508;SDS011;70930;52.412;13.554;2023-07-13T04:16:38;6.20;;;3.47;;
81508;SDS011;70930;52.412;13.554;2023-07-13T04:19:23;3.63;;;3.15;;
81508;SDS011;70930;52.412;13.554;2023-07-13T04:22:09;5.13;;;2.80;;
81508;SDS011;70930;52.412;13.554;2023-07-13T04:24:54;5.30;;;2.90;;
81508;SDS011;70930;52.412;13.554;2023-07-13T04:27:39;5.65;;;3.08;;
81508;SDS011;70930;52.412;13.554;2023-07-13T04:30:25;5.22;;;2.78;;
81508;SDS011;70930;52.412;13.554;2023-07-13T04:33:11;4.30;;;2.40;;
81508;SDS011;70930;52.412;13.554;2023-07-13T04:35:57;5.63;;;2.38;;
81508;SDS011;70930;52.412;13.554;2023-07-13T04:38:42;4.20;;;2.58;;
81508;SDS011;70930;52.412;13.554;2023-07-13T04:41:28;5.43;;;3.10;;
81508;SDS011;70930;52.412;13.554;2023-07-13T04:44:13;6.55;;;2.95;;
81508;SDS011;70930;52.412;13.554;2023-07-13T04:46:59;5.72;;;2.75;;
81508;SDS011;70930;52.412;13.554;2023-07-13T04:49:44;5.63;;;2.40;;
81508;SDS011;70930;52.412;13.554;2023-07-13T04:52:30;6.28;;;3.08;;
81508;SDS011;70930;52.412;13.554;2023-07-13T04:55:16;5.00;;;2.50;;
81508;SDS011;70930;52.412;13.554;2023-07-13T04:58:02;3.33;;;2.45;;
81508;SDS011;70930;52.412;13.554;2023-07-13T05:00:49;4.72;;;2.70;;
81508;SDS011;70930;52.412;13.554;2023-07-13T05:03:35;5.95;;;2.85;;
81508;SDS011;70930;52.412;13.554;2023-07-13T05:09:07;5.22;;;2.47;;
81508;SDS011;70930;52.412;13.554;2023-07-13T05:11:53;4.18;;;2.63;;
81508;SDS011;70930;52.412;13.554;2023-07-13T05:14:38;3.60;;;2.38;;
81508;SDS011;70930;52.412;13.554;2023-07-13T05:17:24;4.40;;;2.80;;
81508;SDS011;70930;52.412;13.554;2023-07-13T05:20:09;4.88;;;2.65;;
81508;SDS011;70930;52.412;13.554;2023-07-13T05:22:54;3.67;;;2.22;;
81508;SDS011;70930;52.412;13.554;2023-07-13T05:25:40;5.50;;;3.72;;
81508;SDS011;70930;52.412;13.554;2023-07-13T05:28:26;4.10;;;2.42;;
81508;SDS011;70930;52.412;13.554;2023-07-13T05:31:12;4.70;;;2.13;;
81508;SDS011;70930;52.412;13.554;2023-07-13T05:33:58;3.90;;;2.10;;
81508;SDS011;70930;52.412;13.554;2023-07-13T05:36:43;5.30;;;2.63;;
81508;SDS011;70930;52.412;13.554;2023-07-13T05:39:29;4.60;;;2.47;;
81508;SDS011;70930;52.412;13.554;2023-07-13T05:42:14;6.25;;;2.40;;
81508;SDS011;70930;52.412;13.554;2023-07-13T05:45:00;5.07;;;2.42;;
81508;SDS011;70930;52.412;13.554;2023-07-13T05:47:45;5.65;;;2.22;;
81508;SDS011;70930;52.412;13.554;2023-07-13T05:50:30;4.50;;;2.35;;
81508;SDS011;70930;52.412;13.554;2023-07-13T05:53:16;4.78;;;2.28;;
81508;SDS011;70930;52.412;13.554;2023-07-13T05:56:02;4.50;;;2.58;;
81508;SDS011;70930;52.412;13.554;2023-07-13T05:58:48;4.32;;;2.33;;
81508;SDS011;70930;52.412;13.554;2023-07-13T06:04:19;3.35;;;1.92;;
81508;SDS011;70930;52.412;13.554;2023-07-13T06:07:05;2.30;;;1.75;;
81508;SDS011;70930;52.412;13.554;2023-07-13T06:09:50;4.88;;;1.65;;
81508;SDS011;70930;52.412;13.554;2023-07-13T06:12:36;3.10;;;1.60;;
81508;SDS011;70930;52.412;13.554;2023-07-13T06:15:21;3.45;;;1.85;;
81508;SDS011;70930;52.412;13.554;2023-07-13T06:18:07;3.65;;;1.70;;
81508;SDS011;70930;52.412;13.554;2023-07-13T06:20:52;3.97;;;1.58;;
81508;SDS011;70930;52.412;13.554;2023-07-13T06:23:38;3.67;;;1.48;;
81508;SDS011;70930;52.412;13.554;2023-07-13T06:26:23;3.20;;;1.52;;
81508;SDS011;70930;52.412;13.554;2023-07-13T06:29:09;4.40;;;1.80;;
81508;SDS011;70930;52.412;13.554;2023-07-13T06:31:54;5.57;;;1.90;;
81508;SDS011;70930;52.412;13.554;2023-07-13T06:34:39;4.57;;;1.75;;
81508;SDS011;70930;52.412;13.554;2023-07-13T06:37:25;3.47;;;1.70;;
81508;SDS011;70930;52.412;13.554;2023-07-13T06:40:11;3.70;;;1.70;;
81508;SDS011;70930;52.412;13.554;2023-07-13T06:45:44;2.85;;;1.45;;
81508;SDS011;70930;52.412;13.554;2023-07-13T06:48:32;4.15;;;1.67;;
81508;SDS011;70930;52.412;13.554;2023-07-13T06:51:17;4.10;;;2.03;;
81508;SDS011;70930;52.412;13.554;2023-07-13T06:54:03;2.85;;;1.65;;
81508;SDS011;70930;52.412;13.554;2023-07-13T06:56:48;4.10;;;1.92;;
81508;SDS011;70930;52.412;13.554;2023-07-13T06:59:34;3.67;;;1.67;;
81508;SDS011;70930;52.412;13.554;2023-07-13T07:02:19;3.70;;;1.70;;
81508;SDS011;70930;52.412;13.554;2023-07-13T07:05:04;3.05;;;1.77;;
81508;SDS011;70930;52.412;13.554;2023-07-13T07:07:50;4.57;;;1.83;;
81508;SDS011;70930;52.412;13.554;2023-07-13T07:10:37;4.57;;;1.80;;
81508;SDS011;70930;52.412;13.554;2023-07-13T07:13:22;4.18;;;1.70;;
81508;SDS011;70930;52.412;13.554;2023-07-13T07:16:08;4.18;;;1.55;;
81508;SDS011;70930;52.412;13.554;2023-07-13T07:18:53;3.55;;;2.00;;
81508;SDS011;70930;52.412;13.554;2023-07-13T07:21:39;5.40;;;1.83;;
81508;SDS011;70930;52.412;13.554;2023-07-13T07:24:24;3.33;;;1.60;;
81508;SDS011;70930;52.412;13.554;2023-07-13T07:27:10;3.70;;;1.60;;
81508;SDS011;70930;52.412;13.554;2023-07-13T07:29:55;4.32;;;1.67;;
81508;SDS011;70930;52.412;13.554;2023-07-13T07:32:42;4.35;;;1.70;;
81508;SDS011;70930;52.412;13.554;2023-07-13T07:35:28;4.88;;;1.58;;
81508;SDS011;70930;52.412;13.554;2023-07-13T07:38:13;3.58;;;1.42;;
81508;SDS011;70930;52.412;13.554;2023-07-13T07:41:00;2.78;;;1.70;;
81508;SDS011;70930;52.412;13.554;2023-07-13T07:43:47;1.80;;;1.10;;
81508;SDS011;70930;52.412;13.554;2023-07-13T07:46:33;5.00;;;1.52;;
81508;SDS011;70930;52.412;13.554;2023-07-13T07:49:18;2.05;;;1.30;;
81508;SDS011;70930;52.412;13.554;2023-07-13T07:52:04;4.03;;;1.30;;
81508;SDS011;70930;52.412;13.554;2023-07-13T07:54:50;2.28;;;1.40;;
81508;SDS011;70930;52.412;13.554;2023-07-13T07:57:35;4.20;;;1.40;;
81508;SDS011;70930;52.412;13.554;2023-07-13T08:00:21;2.55;;;1.40;;
81508;SDS011;70930;52.412;13.554;2023-07-13T08:03:06;3.53;;;1.65;;
81508;SDS011;70930;52.412;13.554;2023-07-13T08:05:52;4.25;;;1.60;;
81508;SDS011;70930;52.412;13.554;2023-07-13T08:08:39;2.88;;;1.30;;
81508;SDS011;70930;52.412;13.554;2023-07-13T08:11:24;3.60;;;1.65;;
81508;SDS011;70930;52.412;13.554;2023-07-13T08:14:10;2.08;;;1.33;;
81508;SDS011;70930;52.412;13.554;2023-07-13T08:16:55;3.20;;;1.60;;
81508;SDS011;70930;52.412;13.554;2023-07-13T08:19:40;2.65;;;1.52;;
81508;SDS011;70930;52.412;13.554;2023-07-13T08:22:26;2.53;;;1.80;;
81508;SDS011;70930;52.412;13.554;2023-07-13T08:25:12;3.17;;;1.40;;
81508;SDS011;70930;52.412;13.554;2023-07-13T08:27:57;3.55;;;1.40;;
81508;SDS011;70930;52.412;13.554;2023-07-13T08:30:43;2.97;;;1.30;;
81508;SDS011;70930;52.412;13.554;2023-07-13T08:33:28;2.70;;;1.38;;
81508;SDS011;70930;52.412;13.554;2023-07-13T08:36:14;3.00;;;1.73;;
81508;SDS011;70930;52.412;13.554;2023-07-13T08:38:59;3.22;;;1.65;;
81508;SDS011;70930;52.412;13.554;2023-07-13T08:41:46;5.78;;;1.65;;
81508;SDS011;70930;52.412;13.554;2023-07-13T08:47:41;3.97;;;1.88;;
81508;SDS011;70930;52.412;13.554;2023-07-13T08:50:40;2.35;;;1.40;;
81508;SDS011;70930;52.412;13.554;2023-07-13T08:53:36;3.45;;;1.50;;
81508;SDS011;70930;52.412;13.554;2023-07-13T08:56:26;2.65;;;1.52;;
81508;SDS011;70930;52.412;13.554;2023-07-13T08:59:14;3.47;;;1.90;;
81508;SDS011;70930;52.412;13.554;2023-07-13T09:04:56;3.15;;;1.92;;
81508;SDS011;70930;52.412;13.554;2023-07-13T09:11:20;3.13;;;1.38;;
81508;SDS011;70930;52.412;13.554;2023-07-13T09:14:24;2.25;;;1.90;;
81508;SDS011;70930;52.412;13.554;2023-07-13T09:17:19;2.80;;;1.55;;
81508;SDS011;70930;52.412;13.554;2023-07-13T09:23:04;3.00;;;1.80;;
81508;SDS011;70930;52.412;13.554;2023-07-13T09:26:18;2.72;;;1.67;;
81508;SDS011;70930;52.412;13.554;2023-07-13T09:29:14;3.80;;;1.60;;
81508;SDS011;70930;52.412;13.554;2023-07-13T09:32:07;4.65;;;1.85;;
81508;SDS011;70930;52.412;13.554;2023-07-13T09:34:58;3.35;;;2.00;;
81508;SDS011;70930;52.412;13.554;2023-07-13T09:37:45;3.40;;;1.70;;
81508;SDS011;70930;52.412;13.554;2023-07-13T09:41:17;5.32;;;2.10;;
81508;SDS011;70930;52.412;13.554;2023-07-13T09:44:09;3.05;;;1.98;;
81508;SDS011;70930;52.412;13.554;2023-07-13T09:46:56;3.25;;;1.90;;
81508;SDS011;70930;52.412;13.554;2023-07-13T09:49:42;3.45;;;1.75;;
81508;SDS011;70930;52.412;13.554;2023-07-13T09:55:36;5.40;;;1.67;;
81508;SDS011;70930;52.412;13.554;2023-07-13T09:58:26;3.58;;;1.90;;
81508;SDS011;70930;52.412;13.554;2023-07-13T10:01:17;2.03;;;1.73;;
81508;SDS011;70930;52.412;13.554;2023-07-13T10:04:18;4.32;;;1.90;;
81508;SDS011;70930;52.412;13.554;2023-07-13T10:07:09;5.78;;;1.85;;
81508;SDS011;70930;52.412;13.554;2023-07-13T10:12:46;3.72;;;1.98;;
81508;SDS011;70930;52.412;13.554;2023-07-13T10:18:17;3.97;;;1.90;;
81508;SDS011;70930;52.412;13.554;2023-07-13T10:21:18;4.32;;;2.13;;
81508;SDS011;70930;52.412;13.554;2023-07-13T10:24:23;8.43;;;2.22;;
81508;SDS011;70930;52.412;13.554;2023-07-13T10:27:18;4.95;;;1.85;;
81508;SDS011;70930;52.412;13.554;2023-07-13T10:30:27;6.20;;;2.03;;
81508;SDS011;70930;52.412;13.554;2023-07-13T10:33:16;3.05;;;2.05;;
81508;SDS011;70930;52.412;13.554;2023-07-13T10:36:15;6.43;;;2.25;;
81508;SDS011;70930;52.412;13.554;2023-07-13T10:39:19;3.70;;;2.17;;
81508;SDS011;70930;52.412;13.554;2023-07-13T10:42:10;3.25;;;2.10;;
81508;SDS011;70930;52.412;13.554;2023-07-13T10:45:00;4.93;;;2.30;;
81508;SDS011;70930;52.412;13.554;2023-07-13T10:47:46;4.40;;;2.30;;
81508;SDS011;70930;52.412;13.554;2023-07-13T10:50:34;3.95;;;2.58;;
81508;SDS011;70930;52.412;13.554;2023-07-13T10:53:29;4.50;;;2.60;;
81508;SDS011;70930;52.412;13.554;2023-07-13T10:56:24;4.57;;;2.53;;
81508;SDS011;70930;52.412;13.554;2023-07-13T10:59:24;4.00;;;2.40;;
81508;SDS011;70930;52.412;13.554;2023-07-13T11:05:25;5.10;;;2.65;;
81508;SDS011;70930;52.412;13.554;2023-07-13T11:14:28;5.78;;;2.63;;
81508;SDS011;70930;52.412;13.554;2023-07-13T11:25:58;4.38;;;2.10;;
81508;SDS011;70930;52.412;13.554;2023-07-13T11:28:46;3.50;;;2.15;;
81508;SDS011;70930;52.412;13.554;2023-07-13T11:31:34;5.82;;;2.25;;
81508;SDS011;70930;52.412;13.554;2023-07-13T11:34:36;3.47;;;2.20;;
81508;SDS011;70930;52.412;13.554;2023-07-13T11:37:23;4.13;;;2.25;;
81508;SDS011;70930;52.412;13.554;2023-07-13T11:40:15;6.43;;;2.40;;
81508;SDS011;70930;52.412;13.554;2023-07-13T11:43:01;2.80;;;2.15;;
81508;SDS011;70930;52.412;13.554;2023-07-13T11:45:47;4.93;;;2.08;;
81508;SDS011;70930;52.412;13.554;2023-07-13T11:48:33;4.97;;;1.98;;
81508;SDS011;70930;52.412;13.554;2023-07-13T11:51:26;2.20;;;1.92;;
81508;SDS011;70930;52.412;13.554;2023-07-13T11:54:22;3.58;;;2.20;;
81508;SDS011;70930;52.412;13.554;2023-07-13T11:57:24;3.85;;;1.90;;
81508;SDS011;70930;52.412;13.554;2023-07-13T12:00:13;4.97;;;2.58;;
81508;SDS011;70930;52.412;13.554;2023-07-13T12:03:02;5.80;;;2.25;;
81508;SDS011;70930;52.412;13.554;2023-07-13T12:05:57;3.45;;;1.92;;
81508;SDS011;70930;52.412;13.554;2023-07-13T12:08:46;3.63;;;1.92;;
81508;SDS011;70930;52.412;13.554;2023-07-13T12:11:34;4.18;;;1.92;;
81508;SDS011;70930;52.412;13.554;2023-07-13T12:14:22;2.45;;;1.88;;
81508;SDS011;70930;52.412;13.554;2023-07-13T12:17:18;2.97;;;1.88;;
81508;SDS011;70930;52.412;13.554;2023-07-13T12:20:18;4.63;;;2.63;;
81508;SDS011;70930;52.412;13.554;2023-07-13T12:23:14;3.65;;;2.15;;
81508;SDS011;70930;52.412;13.554;2023-07-13T12:26:09;3.70;;;2.15;;
81508;SDS011;70930;52.412;13.554;2023-07-13T12:28:58;4.47;;;2.22;;
81508;SDS011;70930;52.412;13.554;2023-07-13T12:31:47;3.63;;;2.00;;
81508;SDS011;70930;52.412;13.554;2023-07-13T12:34:49;4.13;;;1.90;;
81508;SDS011;70930;52.412;13.554;2023-07-13T12:37:37;5.97;;;2.30;;
81508;SDS011;70930;52.412;13.554;2023-07-13T12:40:24;2.95;;;1.73;;
81508;SDS011;70930;52.412;13.554;2023-07-13T12:43:13;4.80;;;1.90;;
81508;SDS011;70930;52.412;13.554;2023-07-13T12:46:03;3.13;;;2.08;;
81508;SDS011;70930;52.412;13.554;2023-07-13T12:48:50;5.72;;;1.90;;
81508;SDS011;70930;52.412;13.554;2023-07-13T12:51:38;4.38;;;2.13;;
81508;SDS011;70930;52.412;13.554;2023-07-13T12:54:24;3.15;;;2.17;;
81508;SDS011;70930;52.412;13.554;2023-07-13T12:57:13;3.63;;;2.25;;
81508;SDS011;70930;52.412;13.554;2023-07-13T13:00:01;3.05;;;1.83;;
81508;SDS011;70930;52.412;13.554;2023-07-13T13:02:49;3.90;;;1.90;;
81508;SDS011;70930;52.412;13.554;2023-07-13T13:05:40;3.83;;;1.77;;
81508;SDS011;70930;52.412;13.554;2023-07-13T13:08:27;5.07;;;1.95;;
81508;SDS011;70930;52.412;13.554;2023-07-13T13:11:12;2.35;;;1.60;;
81508;SDS011;70930;52.412;13.554;2023-07-13T13:14:00;3.17;;;1.90;;
81508;SDS011;70930;52.412;13.554;2023-07-13T13:16:47;4.35;;;1.90;;
81508;SDS011;70930;52.412;13.554;2023-07-13T13:19:34;3.42;;;1.95;;
81508;SDS011;70930;52.412;13.554;2023-07-13T13:22:20;3.40;;;1.92;;
81508;SDS011;70930;52.412;13.554;2023-07-13T13:27:53;3.60;;;1.80;;
81508;SDS011;70930;52.412;13.554;2023-07-13T13:30:39;7.60;;;2.20;;
81508;SDS011;70930;52.412;13.554;2023-07-13T13:33:25;4.50;;;1.83;;
81508;SDS011;70930;52.412;13.554;2023-07-13T13:36:21;3.22;;;1.52;;
81508;SDS011;70930;52.412;13.554;2023-07-13T13:39:50;4.03;;;1.67;;
81508;SDS011;70930;52.412;13.554;2023-07-13T13:42:23;5.03;;;1.52;;
81508;SDS011;70930;52.412;13.554;2023-07-13T13:45:10;4.68;;;1.60;;
81508;SDS011;70930;52.412;13.554;2023-07-13T13:47:57;3.92;;;1.70;;
81508;SDS011;70930;52.412;13.554;2023-07-13T13:50:43;4.22;;;1.88;;
81508;SDS011;70930;52.412;13.554;2023-07-13T13:53:28;3.03;;;1.63;;
81508;SDS011;70930;52.412;13.554;2023-07-13T13:56:14;4.05;;;2.00;;
81508;SDS011;70930;52.412;13.554;2023-07-13T13:59:02;3.72;;;1.58;;
81508;SDS011;70930;52.412;13.554;2023-07-13T14:01:49;4.20;;;1.70;;
81508;SDS011;70930;52.412;13.554;2023-07-13T14:04:34;3.63;;;1.40;;
81508;SDS011;70930;52.412;13.554;2023-07-13T14:07:20;5.85;;;1.50;;
81508;SDS011;70930;52.412;13.554;2023-07-13T14:10:10;2.40;;;1.48;;
81508;SDS011;70930;52.412;13.554;2023-07-13T14:12:58;3.55;;;1.30;;
81508;SDS011;70930;52.412;13.554;2023-07-13T14:15:44;3.08;;;1.23;;
81508;SDS011;70930;52.412;13.554;2023-07-13T14:18:29;2.40;;;1.10;;
81508;SDS011;70930;52.412;13.554;2023-07-13T14:21:16;2.28;;;1.20;;
81508;SDS011;70930;52.412;13.554;2023-07-13T14:24:03;4.00;;;1.27;;
81508;SDS011;70930;52.412;13.554;2023-07-13T14:26:49;5.50;;;1.40;;
81508;SDS011;70930;52.412;13.554;2023-07-13T14:29:34;2.15;;;1.60;;
81508;SDS011;70930;52.412;13.554;2023-07-13T14:32:19;5.20;;;1.60;;
81508;SDS011;70930;52.412;13.554;2023-07-13T14:35:05;4.20;;;1.70;;
81508;SDS011;70930;52.412;13.554;2023-07-13T14:37:51;4.95;;;1.75;;
81508;SDS011;70930;52.412;13.554;2023-07-13T14:40:37;3.28;;;1.23;;
81508;SDS011;70930;52.412;13.554;2023-07-13T14:43:22;2.85;;;1.50;;
81508;SDS011;70930;52.412;13.554;2023-07-13T14:46:43;4.00;;;1.25;;
81508;SDS011;70930;52.412;13.554;2023-07-13T14:52:18;1.85;;;1.13;;
81508;SDS011;70930;52.412;13.554;2023-07-13T14:55:13;4.05;;;1.40;;
81508;SDS011;70930;52.412;13.554;2023-07-13T14:58:01;3.65;;;1.55;;
81508;SDS011;70930;52.412;13.554;2023-07-13T15:00:46;3.83;;;1.38;;
81508;SDS011;70930;52.412;13.554;2023-07-13T15:03:33;3.28;;;1.20;;
81508;SDS011;70930;52.412;13.554;2023-07-13T15:06:18;3.30;;;1.35;;
81508;SDS011;70930;52.412;13.554;2023-07-13T15:09:04;4.75;;;1.77;;
81508;SDS011;70930;52.412;13.554;2023-07-13T15:11:50;3.70;;;1.15;;
81508;SDS011;70930;52.412;13.554;2023-07-13T15:14:35;4.15;;;1.50;;
81508;SDS011;70930;52.412;13.554;2023-07-13T15:17:24;2.92;;;1.17;;
81508;SDS011;70930;52.412;13.554;2023-07-13T15:20:21;2.33;;;1.13;;
81508;SDS011;70930;52.412;13.554;2023-07-13T15:23:09;4.07;;;1.30;;
81508;SDS011;70930;52.412;13.554;2023-07-13T15:25:55;3.45;;;1.23;;
81508;SDS011;70930;52.412;13.554;2023-07-13T15:28:41;3.08;;;1.02;;
81508;SDS011;70930;52.412;13.554;2023-07-13T15:31:28;3.25;;;1.30;;
81508;SDS011;70930;52.412;13.554;2023-07-13T15:34:14;1.48;;;1.10;;
81508;SDS011;70930;52.412;13.554;2023-07-13T15:37:03;3.50;;;1.13;;
81508;SDS011;70930;52.412;13.554;2023-07-13T15:39:53;2.65;;;1.30;;
81508;SDS011;70930;52.412;13.554;2023-07-13T15:42:39;2.55;;;0.93;;
81508;SDS011;70930;52.412;13.554;2023-07-13T15:45:26;1.83;;;1.20;;
81508;SDS011;70930;52.412;13.554;2023-07-13T15:48:13;2.92;;;1.85;;
81508;SDS011;70930;52.412;13.554;2023-07-13T15:51:03;2.63;;;1.00;;
81508;SDS011;70930;52.412;13.554;2023-07-13T15:53:50;3.83;;;1.20;;
81508;SDS011;70930;52.412;13.554;2023-07-13T15:56:40;2.75;;;1.48;;
81508;SDS011;70930;52.412;13.554;2023-07-13T16:02:12;2.30;;;1.00;;
81508;SDS011;70930;52.412;13.554;2023-07-13T16:05:01;1.88;;;1.15;;
81508;SDS011;70930;52.412;13.554;2023-07-13T16:07:47;2.58;;;1.00;;
81508;SDS011;70930;52.412;13.554;2023-07-13T16:10:36;2.33;;;1.02;;
81508;SDS011;70930;52.412;13.554;2023-07-13T16:13:23;2.65;;;1.20;;
81508;SDS011;70930;52.412;13.554;2023-07-13T16:16:10;2.65;;;1.23;;
81508;SDS011;70930;52.412;13.554;2023-07-13T16:18:57;1.55;;;1.15;;
81508;SDS011;70930;52.412;13.554;2023-07-13T16:21:53;3.35;;;1.23;;
81508;SDS011;70930;52.412;13.554;2023-07-13T16:24:39;1.65;;;1.00;;
81508;SDS011;70930;52.412;13.554;2023-07-13T16:27:24;2.67;;;1.15;;
81508;SDS011;70930;52.412;13.554;2023-07-13T16:30:15;5.90;;;1.15;;
81508;SDS011;70930;52.412;13.554;2023-07-13T16:33:11;2.83;;;1.50;;
81508;SDS011;70930;52.412;13.554;2023-07-13T16:35:56;2.83;;;1.20;;
81508;SDS011;70930;52.412;13.554;2023-07-13T16:38:43;2.45;;;1.30;;
81508;SDS011;70930;52.412;13.554;2023-07-13T16:41:30;2.63;;;1.20;;
81508;SDS011;70930;52.412;13.554;2023-07-13T16:44:16;1.70;;;1.27;;
81508;SDS011;70930;52.412;13.554;2023-07-13T16:47:12;3.22;;;1.20;;
81508;SDS011;70930;52.412;13.554;2023-07-13T16:49:59;2.58;;;1.10;;
81508;SDS011;70930;52.412;13.554;2023-07-13T16:52:49;3.15;;;1.00;;
81508;SDS011;70930;52.412;13.554;2023-07-13T16:55:35;3.20;;;1.05;;
81508;SDS011;70930;52.412;13.554;2023-07-13T16:58:20;1.98;;;1.20;;
81508;SDS011;70930;52.412;13.554;2023-07-13T17:01:09;1.60;;;0.93;;
81508;SDS011;70930;52.412;13.554;2023-07-13T17:03:55;2.45;;;1.20;;
81508;SDS011;70930;52.412;13.554;2023-07-13T17:06:45;3.83;;;1.60;;
81508;SDS011;70930;52.412;13.554;2023-07-13T17:09:31;2.45;;;1.23;;
81508;SDS011;70930;52.412;13.554;2023-07-13T17:15:08;2.15;;;1.15;;
81508;SDS011;70930;52.412;13.554;2023-07-13T17:17:54;2.58;;;1.40;;
81508;SDS011;70930;52.412;13.554;2023-07-13T17:20:50;2.40;;;1.30;;
81508;SDS011;70930;52.412;13.554;2023-07-13T17:23:36;2.55;;;1.23;;
81508;SDS011;70930;52.412;13.554;2023-07-13T17:29:08;2.50;;;1.35;;
81508;SDS011;70930;52.412;13.554;2023-07-13T17:31:54;7.05;;;1.80;;
81508;SDS011;70930;52.412;13.554;2023-07-13T17:34:40;10.65;;;3.00;;
81508;SDS011;70930;52.412;13.554;2023-07-13T17:37:30;10.15;;;2.03;;